sensor_id;sensor_type;location;lat;lon;timestamp;temperature;humidity
11320;DHT22;5715;48.234;14.320;2023-12-04T00:00:15;-12.80;99.90
11320;DHT22;5715;48.234;14.320;2023-12-04T00:03:03;-12.80;99.90
11320;DHT22;5715;48.234;14.320;2023-12-04T00:05:51;-12.70;99.90
11320;DHT22;5715;48.234;14.320;2023-12-04T00:08:39;-12.80;99.90
11320;DHT22;5715;48.234;14.320;2023-12-04T00:11:27;-12.70;99.90
11320;DHT22;5715;48.234;14.320;2023-12-04T00:14:17;-12.70;99.90
11320;DHT22;5715;48.234;14.320;2023-12-04T00:17:04;-12.70;99.90
11320;DHT22;5715;48.234;14.320;2023-12-04T00:19:52;-12.70;99.90
11320;DHT22;5715;48.234;14.320;2023-12-04T00:22:39;-12.70;99.90
11320;DHT22;5715;48.234;14.320;2023-12-04T00:25:27;-12.60;99.90
11320;DHT22;5715;48.234;14.320;2023-12-04T00:28:15;-12.50;99.90
11320;DHT22;5715;48.234;14.320;2023-12-04T00:31:02;-12.40;99.90
11320;DHT22;5715;48.234;14.320;2023-12-04T00:33:50;-12.40;99.90
11320;DHT22;5715;48.234;14.320;2023-12-04T00:36:38;-12.40;99.90
11320;DHT22;5715;48.234;14.320;2023-12-04T00:39:26;-12.50;99.90
11320;DHT22;5715;48.234;14.320;2023-12-04T00:42:13;-12.50;99.90
11320;DHT22;5715;48.234;14.320;2023-12-04T00:45:02;-12.40;99.90
11320;DHT22;5715;48.234;14.320;2023-12-04T00:47:50;-12.30;99.90
11320;DHT22;5715;48.234;14.320;2023-12-04T00:50:38;-12.10;99.90
11320;DHT22;5715;48.234;14.320;2023-12-04T00:53:25;-12.00;99.90
11320;DHT22;5715;48.234;14.320;2023-12-04T00:56:13;-11.90;99.90
11320;DHT22;5715;48.234;14.320;2023-12-04T00:59:01;-11.80;99.90
11320;DHT22;5715;48.234;14.320;2023-12-04T01:01:48;-11.80;99.90
11320;DHT22;5715;48.234;14.320;2023-12-04T01:04:38;-11.70;99.90
11320;DHT22;5715;48.234;14.320;2023-12-04T01:07:28;-11.80;99.90
11320;DHT22;5715;48.234;14.320;2023-12-04T01:10:16;-11.80;99.90
11320;DHT22;5715;48.234;14.320;2023-12-04T01:13:04;-11.80;99.90
11320;DHT22;5715;48.234;14.320;2023-12-04T01:15:52;-11.80;99.90
11320;DHT22;5715;48.234;14.320;2023-12-04T01:18:40;-11.70;99.90
11320;DHT22;5715;48.234;14.320;2023-12-04T01:21:28;-11.70;99.90
11320;DHT22;5715;48.234;14.320;2023-12-04T01:24:15;-11.60;99.90
11320;DHT22;5715;48.234;14.320;2023-12-04T01:27:03;-11.60;99.90
11320;DHT22;5715;48.234;14.320;2023-12-04T01:29:51;-11.60;99.90
11320;DHT22;5715;48.234;14.320;2023-12-04T01:32:39;-11.70;99.90
11320;DHT22;5715;48.234;14.320;2023-12-04T01:35:26;-11.70;99.90
11320;DHT22;5715;48.234;14.320;2023-12-04T01:38:14;-11.80;99.90
11320;DHT22;5715;48.234;14.320;2023-12-04T01:41:02;-11.80;99.90
11320;DHT22;5715;48.234;14.320;2023-12-04T01:43:50;-11.80;99.90
11320;DHT22;5715;48.234;14.320;2023-12-04T01:46:38;-11.90;99.90
11320;DHT22;5715;48.234;14.320;2023-12-04T01:49:25;-12.10;99.90
11320;DHT22;5715;48.234;14.320;2023-12-04T01:52:14;-12.20;99.90
11320;DHT22;5715;48.234;14.320;2023-12-04T01:55:03;-12.20;99.90
11320;DHT22;5715;48.234;14.320;2023-12-04T01:57:52;-12.30;99.90
11320;DHT22;5715;48.234;14.320;2023-12-04T02:00:41;-12.30;99.90
11320;DHT22;5715;48.234;14.320;2023-12-04T02:03:29;-12.30;99.90
11320;DHT22;5715;48.234;14.320;2023-12-04T02:06:17;-12.30;99.90
11320;DHT22;5715;48.234;14.320;2023-12-04T02:09:08;-12.30;99.90
11320;DHT22;5715;48.234;14.320;2023-12-04T02:11:59;-12.30;99.90
11320;DHT22;5715;48.234;14.320;2023-12-04T02:14:47;-12.40;99.90
11320;DHT22;5715;48.234;14.320;2023-12-04T02:17:35;-12.40;99.90
11320;DHT22;5715;48.234;14.320;2023-12-04T02:20:34;-12.50;99.90
11320;DHT22;5715;48.234;14.320;2023-12-04T02:23:22;-12.40;99.90
11320;DHT22;5715;48.234;14.320;2023-12-04T02:26:13;-12.50;99.90
11320;DHT22;5715;48.234;14.320;2023-12-04T02:29:10;-12.50;99.90
11320;DHT22;5715;48.234;14.320;2023-12-04T02:32:04;-12.40;99.90
11320;DHT22;5715;48.234;14.320;2023-12-04T02:34:55;-12.40;99.90
11320;DHT22;5715;48.234;14.320;2023-12-04T02:37:45;-12.40;99.90
11320;DHT22;5715;48.234;14.320;2023-12-04T02:40:35;-12.40;99.90
11320;DHT22;5715;48.234;14.320;2023-12-04T02:43:22;-12.40;99.90
11320;DHT22;5715;48.234;14.320;2023-12-04T02:46:10;-12.40;99.90
11320;DHT22;5715;48.234;14.320;2023-12-04T02:48:57;-12.40;99.90
11320;DHT22;5715;48.234;14.320;2023-12-04T02:51:45;-12.50;99.90
11320;DHT22;5715;48.234;14.320;2023-12-04T02:54:33;-12.50;99.90
11320;DHT22;5715;48.234;14.320;2023-12-04T02:57:20;-12.60;99.90
11320;DHT22;5715;48.234;14.320;2023-12-04T03:00:09;-12.60;99.90
11320;DHT22;5715;48.234;14.320;2023-12-04T03:02:57;-12.60;99.90
11320;DHT22;5715;48.234;14.320;2023-12-04T03:05:45;-12.60;99.90
11320;DHT22;5715;48.234;14.320;2023-12-04T03:08:32;-12.50;99.90
11320;DHT22;5715;48.234;14.320;2023-12-04T03:11:20;-12.50;99.90
11320;DHT22;5715;48.234;14.320;2023-12-04T03:14:08;-12.50;99.90
11320;DHT22;5715;48.234;14.320;2023-12-04T03:16:55;-12.50;99.90
11320;DHT22;5715;48.234;14.320;2023-12-04T03:19:43;-12.40;99.90
11320;DHT22;5715;48.234;14.320;2023-12-04T03:22:30;-12.40;99.90
11320;DHT22;5715;48.234;14.320;2023-12-04T03:25:18;-12.40;99.90
11320;DHT22;5715;48.234;14.320;2023-12-04T03:28:05;-12.40;99.90
11320;DHT22;5715;48.234;14.320;2023-12-04T03:30:53;-12.30;99.90
11320;DHT22;5715;48.234;14.320;2023-12-04T03:33:41;-12.60;99.90
11320;DHT22;5715;48.234;14.320;2023-12-04T03:36:29;-12.70;99.90
11320;DHT22;5715;48.234;14.320;2023-12-04T03:39:16;-12.80;99.90
11320;DHT22;5715;48.234;14.320;2023-12-04T03:42:04;-13.00;99.90
11320;DHT22;5715;48.234;14.320;2023-12-04T03:44:52;-12.80;99.90
11320;DHT22;5715;48.234;14.320;2023-12-04T03:47:39;-13.10;99.90
11320;DHT22;5715;48.234;14.320;2023-12-04T03:50:28;-13.10;99.90
11320;DHT22;5715;48.234;14.320;2023-12-04T03:53:15;-13.30;99.90
11320;DHT22;5715;48.234;14.320;2023-12-04T03:56:03;-13.30;99.90
11320;DHT22;5715;48.234;14.320;2023-12-04T03:58:51;-13.40;99.90
11320;DHT22;5715;48.234;14.320;2023-12-04T04:01:39;-13.20;99.90
11320;DHT22;5715;48.234;14.320;2023-12-04T04:04:27;-13.50;99.90
11320;DHT22;5715;48.234;14.320;2023-12-04T04:07:16;-13.70;99.90
11320;DHT22;5715;48.234;14.320;2023-12-04T04:10:07;-13.90;99.90
11320;DHT22;5715;48.234;14.320;2023-12-04T04:12:55;-13.90;99.90
11320;DHT22;5715;48.234;14.320;2023-12-04T04:15:43;-13.90;99.90
11320;DHT22;5715;48.234;14.320;2023-12-04T04:18:31;-13.80;99.90
11320;DHT22;5715;48.234;14.320;2023-12-04T04:21:19;-13.80;99.90
11320;DHT22;5715;48.234;14.320;2023-12-04T04:24:07;-13.70;99.90
11320;DHT22;5715;48.234;14.320;2023-12-04T04:26:54;-13.70;99.90
11320;DHT22;5715;48.234;14.320;2023-12-04T04:29:42;-13.70;99.90
11320;DHT22;5715;48.234;14.320;2023-12-04T04:32:30;-13.60;99.90
11320;DHT22;5715;48.234;14.320;2023-12-04T04:35:17;-13.70;99.90
11320;DHT22;5715;48.234;14.320;2023-12-04T04:38:05;-13.70;99.90
11320;DHT22;5715;48.234;14.320;2023-12-04T04:40:53;-13.70;99.90
11320;DHT22;5715;48.234;14.320;2023-12-04T04:43:41;-13.90;99.90
11320;DHT22;5715;48.234;14.320;2023-12-04T04:46:29;-14.00;99.90
11320;DHT22;5715;48.234;14.320;2023-12-04T04:49:19;-13.90;99.90
11320;DHT22;5715;48.234;14.320;2023-12-04T04:52:07;-13.90;99.90
11320;DHT22;5715;48.234;14.320;2023-12-04T04:54:55;-13.90;99.90
11320;DHT22;5715;48.234;14.320;2023-12-04T04:57:42;-13.90;99.90
11320;DHT22;5715;48.234;14.320;2023-12-04T05:00:30;-13.90;99.90
11320;DHT22;5715;48.234;14.320;2023-12-04T05:03:18;-13.90;99.90
11320;DHT22;5715;48.234;14.320;2023-12-04T05:06:08;-14.00;99.90
11320;DHT22;5715;48.234;14.320;2023-12-04T05:08:56;-14.10;99.90
11320;DHT22;5715;48.234;14.320;2023-12-04T05:11:44;-14.10;99.90
11320;DHT22;5715;48.234;14.320;2023-12-04T05:14:31;-14.10;99.90
11320;DHT22;5715;48.234;14.320;2023-12-04T05:17:19;-14.20;99.90
11320;DHT22;5715;48.234;14.320;2023-12-04T05:20:07;-14.10;99.90
11320;DHT22;5715;48.234;14.320;2023-12-04T05:22:57;-14.10;99.90
11320;DHT22;5715;48.234;14.320;2023-12-04T05:25:44;-14.10;99.90
11320;DHT22;5715;48.234;14.320;2023-12-04T05:28:36;-14.10;99.90
11320;DHT22;5715;48.234;14.320;2023-12-04T05:31:24;-14.10;99.90
11320;DHT22;5715;48.234;14.320;2023-12-04T05:34:12;-14.00;99.90
11320;DHT22;5715;48.234;14.320;2023-12-04T05:36:59;-14.00;99.90
11320;DHT22;5715;48.234;14.320;2023-12-04T05:39:47;-14.10;99.90
11320;DHT22;5715;48.234;14.320;2023-12-04T05:42:35;-14.10;99.90
11320;DHT22;5715;48.234;14.320;2023-12-04T05:45:23;-13.90;99.90
11320;DHT22;5715;48.234;14.320;2023-12-04T05:48:11;-14.00;99.90
11320;DHT22;5715;48.234;14.320;2023-12-04T05:50:58;-14.00;99.90
11320;DHT22;5715;48.234;14.320;2023-12-04T05:53:46;-14.00;99.90
11320;DHT22;5715;48.234;14.320;2023-12-04T05:56:34;-14.10;99.90
11320;DHT22;5715;48.234;14.320;2023-12-04T05:59:21;-14.10;99.90
11320;DHT22;5715;48.234;14.320;2023-12-04T06:02:09;-14.20;99.90
11320;DHT22;5715;48.234;14.320;2023-12-04T06:04:57;-14.20;99.90
11320;DHT22;5715;48.234;14.320;2023-12-04T06:07:44;-14.30;99.90
11320;DHT22;5715;48.234;14.320;2023-12-04T06:10:32;-14.30;99.90
11320;DHT22;5715;48.234;14.320;2023-12-04T06:13:22;-14.20;99.90
11320;DHT22;5715;48.234;14.320;2023-12-04T06:16:09;-14.20;99.90
11320;DHT22;5715;48.234;14.320;2023-12-04T06:18:57;-14.20;99.90
11320;DHT22;5715;48.234;14.320;2023-12-04T06:21:45;-14.20;99.90
11320;DHT22;5715;48.234;14.320;2023-12-04T06:24:33;-14.20;99.90
11320;DHT22;5715;48.234;14.320;2023-12-04T06:27:21;-14.20;99.90
11320;DHT22;5715;48.234;14.320;2023-12-04T06:30:09;-14.20;99.90
11320;DHT22;5715;48.234;14.320;2023-12-04T06:32:58;-14.20;99.90
11320;DHT22;5715;48.234;14.320;2023-12-04T06:35:46;-14.10;99.90
11320;DHT22;5715;48.234;14.320;2023-12-04T06:38:39;-14.00;99.90
11320;DHT22;5715;48.234;14.320;2023-12-04T06:41:28;-14.00;99.90
11320;DHT22;5715;48.234;14.320;2023-12-04T06:44:16;-14.00;99.90
11320;DHT22;5715;48.234;14.320;2023-12-04T06:47:04;-13.90;99.90
11320;DHT22;5715;48.234;14.320;2023-12-04T06:49:55;-13.80;99.90
11320;DHT22;5715;48.234;14.320;2023-12-04T06:52:43;-13.70;99.90
11320;DHT22;5715;48.234;14.320;2023-12-04T06:55:30;-13.60;99.90
11320;DHT22;5715;48.234;14.320;2023-12-04T06:58:18;-13.60;99.90
11320;DHT22;5715;48.234;14.320;2023-12-04T07:01:06;-13.50;99.90
11320;DHT22;5715;48.234;14.320;2023-12-04T07:03:54;-13.40;99.90
11320;DHT22;5715;48.234;14.320;2023-12-04T07:06:41;-13.30;99.90
11320;DHT22;5715;48.234;14.320;2023-12-04T07:09:30;-13.20;99.90
11320;DHT22;5715;48.234;14.320;2023-12-04T07:12:19;-13.20;99.90
11320;DHT22;5715;48.234;14.320;2023-12-04T07:15:08;-13.10;99.90
11320;DHT22;5715;48.234;14.320;2023-12-04T07:17:56;-13.00;99.90
11320;DHT22;5715;48.234;14.320;2023-12-04T07:20:44;-12.50;99.90
11320;DHT22;5715;48.234;14.320;2023-12-04T07:23:31;-11.50;99.90
11320;DHT22;5715;48.234;14.320;2023-12-04T07:26:19;-10.40;99.90
11320;DHT22;5715;48.234;14.320;2023-12-04T07:29:07;-10.00;99.90
11320;DHT22;5715;48.234;14.320;2023-12-04T07:31:54;-9.50;99.90
11320;DHT22;5715;48.234;14.320;2023-12-04T07:34:42;-9.30;99.90
11320;DHT22;5715;48.234;14.320;2023-12-04T07:37:30;-9.00;99.90
11320;DHT22;5715;48.234;14.320;2023-12-04T07:40:18;-8.80;99.90
11320;DHT22;5715;48.234;14.320;2023-12-04T07:43:06;-8.60;99.90
11320;DHT22;5715;48.234;14.320;2023-12-04T07:45:55;-8.40;99.90
11320;DHT22;5715;48.234;14.320;2023-12-04T07:48:43;-8.20;99.90
11320;DHT22;5715;48.234;14.320;2023-12-04T07:51:32;-8.20;99.90
11320;DHT22;5715;48.234;14.320;2023-12-04T07:54:20;-8.10;99.90
11320;DHT22;5715;48.234;14.320;2023-12-04T07:57:09;-8.00;99.90
11320;DHT22;5715;48.234;14.320;2023-12-04T07:59:57;-8.00;99.90
11320;DHT22;5715;48.234;14.320;2023-12-04T08:02:44;-7.90;99.90
11320;DHT22;5715;48.234;14.320;2023-12-04T08:05:33;-7.90;99.90
11320;DHT22;5715;48.234;14.320;2023-12-04T08:08:20;-7.80;99.90
11320;DHT22;5715;48.234;14.320;2023-12-04T08:11:10;-7.70;99.90
11320;DHT22;5715;48.234;14.320;2023-12-04T08:13:58;-7.60;99.90
11320;DHT22;5715;48.234;14.320;2023-12-04T08:16:48;-7.50;99.90
11320;DHT22;5715;48.234;14.320;2023-12-04T08:19:35;-7.40;99.90
11320;DHT22;5715;48.234;14.320;2023-12-04T08:22:25;-7.30;99.90
11320;DHT22;5715;48.234;14.320;2023-12-04T08:25:13;-7.20;99.90
11320;DHT22;5715;48.234;14.320;2023-12-04T08:28:01;-7.10;99.90
11320;DHT22;5715;48.234;14.320;2023-12-04T08:30:49;-6.80;99.90
11320;DHT22;5715;48.234;14.320;2023-12-04T08:33:37;-6.70;99.90
11320;DHT22;5715;48.234;14.320;2023-12-04T08:36:25;-6.60;99.90
11320;DHT22;5715;48.234;14.320;2023-12-04T08:39:12;-6.40;99.90
11320;DHT22;5715;48.234;14.320;2023-12-04T08:42:00;-6.30;99.90
11320;DHT22;5715;48.234;14.320;2023-12-04T08:44:53;-6.20;99.90
11320;DHT22;5715;48.234;14.320;2023-12-04T08:47:40;-6.10;99.90
11320;DHT22;5715;48.234;14.320;2023-12-04T08:50:28;-6.10;99.90
11320;DHT22;5715;48.234;14.320;2023-12-04T08:53:17;-6.10;99.90
11320;DHT22;5715;48.234;14.320;2023-12-04T08:56:05;-6.00;99.90
11320;DHT22;5715;48.234;14.320;2023-12-04T08:58:53;-5.90;99.90
11320;DHT22;5715;48.234;14.320;2023-12-04T09:01:41;-5.80;99.90
11320;DHT22;5715;48.234;14.320;2023-12-04T09:04:28;-5.80;99.90
11320;DHT22;5715;48.234;14.320;2023-12-04T09:07:17;-5.60;99.90
11320;DHT22;5715;48.234;14.320;2023-12-04T09:10:08;-5.60;99.90
11320;DHT22;5715;48.234;14.320;2023-12-04T09:13:07;-5.30;99.90
11320;DHT22;5715;48.234;14.320;2023-12-04T09:15:54;-5.20;99.90
11320;DHT22;5715;48.234;14.320;2023-12-04T09:18:42;-5.20;99.90
11320;DHT22;5715;48.234;14.320;2023-12-04T09:21:30;-5.10;99.90
11320;DHT22;5715;48.234;14.320;2023-12-04T09:24:17;-4.80;99.90
11320;DHT22;5715;48.234;14.320;2023-12-04T09:27:05;-4.80;99.90
11320;DHT22;5715;48.234;14.320;2023-12-04T09:29:56;-4.60;99.90
11320;DHT22;5715;48.234;14.320;2023-12-04T09:32:43;-4.40;99.90
11320;DHT22;5715;48.234;14.320;2023-12-04T09:35:31;-4.20;99.90
11320;DHT22;5715;48.234;14.320;2023-12-04T09:38:19;-4.00;99.90
11320;DHT22;5715;48.234;14.320;2023-12-04T09:41:09;-3.90;99.90
11320;DHT22;5715;48.234;14.320;2023-12-04T09:43:59;-3.90;99.90
11320;DHT22;5715;48.234;14.320;2023-12-04T09:46:47;-3.90;99.90
11320;DHT22;5715;48.234;14.320;2023-12-04T09:49:36;-3.90;99.90
11320;DHT22;5715;48.234;14.320;2023-12-04T09:52:27;-3.80;99.90
11320;DHT22;5715;48.234;14.320;2023-12-04T09:55:16;-3.80;99.90
11320;DHT22;5715;48.234;14.320;2023-12-04T09:58:04;-3.70;99.90
11320;DHT22;5715;48.234;14.320;2023-12-04T10:00:53;-3.60;99.90
11320;DHT22;5715;48.234;14.320;2023-12-04T10:03:43;-3.70;99.90
11320;DHT22;5715;48.234;14.320;2023-12-04T10:06:32;-3.50;99.90
11320;DHT22;5715;48.234;14.320;2023-12-04T10:09:20;-3.50;99.90
11320;DHT22;5715;48.234;14.320;2023-12-04T10:12:10;-3.50;99.90
11320;DHT22;5715;48.234;14.320;2023-12-04T10:15:09;-3.60;99.90
11320;DHT22;5715;48.234;14.320;2023-12-04T10:17:58;-3.50;99.90
11320;DHT22;5715;48.234;14.320;2023-12-04T10:20:53;-3.40;99.90
11320;DHT22;5715;48.234;14.320;2023-12-04T10:23:45;-3.50;99.90
11320;DHT22;5715;48.234;14.320;2023-12-04T10:26:33;-3.70;99.90
11320;DHT22;5715;48.234;14.320;2023-12-04T10:29:21;-3.70;99.90
11320;DHT22;5715;48.234;14.320;2023-12-04T10:32:09;-3.80;99.90
11320;DHT22;5715;48.234;14.320;2023-12-04T10:34:58;-3.70;99.90
11320;DHT22;5715;48.234;14.320;2023-12-04T10:37:47;-3.70;99.90
11320;DHT22;5715;48.234;14.320;2023-12-04T10:40:37;-3.60;99.90
11320;DHT22;5715;48.234;14.320;2023-12-04T10:43:25;-3.50;99.90
11320;DHT22;5715;48.234;14.320;2023-12-04T10:46:14;-3.60;99.90
11320;DHT22;5715;48.234;14.320;2023-12-04T10:49:05;-3.70;99.90
11320;DHT22;5715;48.234;14.320;2023-12-04T10:51:57;-3.60;99.90
11320;DHT22;5715;48.234;14.320;2023-12-04T10:54:50;-3.70;99.90
11320;DHT22;5715;48.234;14.320;2023-12-04T10:57:39;-3.70;99.90
11320;DHT22;5715;48.234;14.320;2023-12-04T11:00:32;-3.70;99.90
11320;DHT22;5715;48.234;14.320;2023-12-04T11:03:28;-3.60;99.90
11320;DHT22;5715;48.234;14.320;2023-12-04T11:06:24;-3.50;99.90
11320;DHT22;5715;48.234;14.320;2023-12-04T11:09:17;-3.40;99.90
11320;DHT22;5715;48.234;14.320;2023-12-04T11:12:08;-3.40;99.90
11320;DHT22;5715;48.234;14.320;2023-12-04T11:15:02;-3.30;99.90
11320;DHT22;5715;48.234;14.320;2023-12-04T11:17:59;-3.30;99.90
11320;DHT22;5715;48.234;14.320;2023-12-04T11:20:59;-3.20;99.90
11320;DHT22;5715;48.234;14.320;2023-12-04T11:23:53;-3.10;99.90
11320;DHT22;5715;48.234;14.320;2023-12-04T11:26:42;-3.00;99.90
11320;DHT22;5715;48.234;14.320;2023-12-04T11:29:32;-3.00;99.90
11320;DHT22;5715;48.234;14.320;2023-12-04T11:32:24;-3.00;99.90
11320;DHT22;5715;48.234;14.320;2023-12-04T11:35:17;-3.00;99.90
11320;DHT22;5715;48.234;14.320;2023-12-04T11:38:06;-3.00;99.90
11320;DHT22;5715;48.234;14.320;2023-12-04T11:40:58;-3.00;99.90
11320;DHT22;5715;48.234;14.320;2023-12-04T11:43:47;-2.80;99.90
11320;DHT22;5715;48.234;14.320;2023-12-04T11:46:35;-2.80;99.90
11320;DHT22;5715;48.234;14.320;2023-12-04T11:52:13;-2.60;99.90
11320;DHT22;5715;48.234;14.320;2023-12-04T11:55:04;-2.60;99.90
11320;DHT22;5715;48.234;14.320;2023-12-04T11:57:54;-2.40;99.90
11320;DHT22;5715;48.234;14.320;2023-12-04T12:00:44;-2.40;99.90
11320;DHT22;5715;48.234;14.320;2023-12-04T12:03:33;-2.30;99.90
11320;DHT22;5715;48.234;14.320;2023-12-04T12:06:23;-2.20;99.90
11320;DHT22;5715;48.234;14.320;2023-12-04T12:09:12;-2.40;99.90
11320;DHT22;5715;48.234;14.320;2023-12-04T12:12:03;-2.30;99.90
11320;DHT22;5715;48.234;14.320;2023-12-04T12:14:52;-2.30;99.90
11320;DHT22;5715;48.234;14.320;2023-12-04T12:17:41;-2.50;99.90
11320;DHT22;5715;48.234;14.320;2023-12-04T12:20:28;-2.50;99.90
11320;DHT22;5715;48.234;14.320;2023-12-04T12:23:16;-2.50;99.90
11320;DHT22;5715;48.234;14.320;2023-12-04T12:26:04;-2.40;99.90
11320;DHT22;5715;48.234;14.320;2023-12-04T12:28:54;-2.30;99.90
11320;DHT22;5715;48.234;14.320;2023-12-04T12:31:41;-2.10;99.90
11320;DHT22;5715;48.234;14.320;2023-12-04T12:34:29;-2.10;99.90
11320;DHT22;5715;48.234;14.320;2023-12-04T12:37:18;-2.20;99.90
11320;DHT22;5715;48.234;14.320;2023-12-04T12:40:07;-2.10;99.90
11320;DHT22;5715;48.234;14.320;2023-12-04T12:43:07;-2.10;99.90
11320;DHT22;5715;48.234;14.320;2023-12-04T12:45:55;-2.30;99.90
11320;DHT22;5715;48.234;14.320;2023-12-04T12:48:43;-2.20;99.90
11320;DHT22;5715;48.234;14.320;2023-12-04T12:51:31;-2.40;99.90
11320;DHT22;5715;48.234;14.320;2023-12-04T12:54:23;-2.20;99.90
11320;DHT22;5715;48.234;14.320;2023-12-04T12:57:12;-2.00;99.90
11320;DHT22;5715;48.234;14.320;2023-12-04T13:00:00;-2.00;99.90
11320;DHT22;5715;48.234;14.320;2023-12-04T13:02:48;-2.00;99.90
11320;DHT22;5715;48.234;14.320;2023-12-04T13:05:36;-1.80;99.90
11320;DHT22;5715;48.234;14.320;2023-12-04T13:08:23;-1.80;99.90
11320;DHT22;5715;48.234;14.320;2023-12-04T13:11:11;-1.90;99.90
11320;DHT22;5715;48.234;14.320;2023-12-04T13:13:59;-2.10;99.90
11320;DHT22;5715;48.234;14.320;2023-12-04T13:16:48;-1.80;99.90
11320;DHT22;5715;48.234;14.320;2023-12-04T13:19:36;-1.70;99.90
11320;DHT22;5715;48.234;14.320;2023-12-04T13:22:25;-1.80;99.90
11320;DHT22;5715;48.234;14.320;2023-12-04T13:25:13;-1.80;99.90
11320;DHT22;5715;48.234;14.320;2023-12-04T13:28:01;-1.80;99.90
11320;DHT22;5715;48.234;14.320;2023-12-04T13:30:49;-1.90;99.90
11320;DHT22;5715;48.234;14.320;2023-12-04T13:33:38;-2.00;99.90
11320;DHT22;5715;48.234;14.320;2023-12-04T13:36:25;-2.20;99.90
11320;DHT22;5715;48.234;14.320;2023-12-04T13:39:14;-2.30;99.90
11320;DHT22;5715;48.234;14.320;2023-12-04T13:42:15;-2.40;99.90
11320;DHT22;5715;48.234;14.320;2023-12-04T13:45:21;-2.40;99.90
11320;DHT22;5715;48.234;14.320;2023-12-04T13:48:09;-2.40;99.90
11320;DHT22;5715;48.234;14.320;2023-12-04T13:50:57;-2.40;99.90
11320;DHT22;5715;48.234;14.320;2023-12-04T13:53:45;-2.40;99.90
11320;DHT22;5715;48.234;14.320;2023-12-04T13:56:37;-2.40;99.90
11320;DHT22;5715;48.234;14.320;2023-12-04T13:59:40;-2.40;99.90
11320;DHT22;5715;48.234;14.320;2023-12-04T14:02:27;-2.50;99.90
11320;DHT22;5715;48.234;14.320;2023-12-04T14:05:15;-2.50;99.90
11320;DHT22;5715;48.234;14.320;2023-12-04T14:08:04;-2.70;99.90
11320;DHT22;5715;48.234;14.320;2023-12-04T14:10:52;-2.80;99.90
11320;DHT22;5715;48.234;14.320;2023-12-04T14:13:40;-2.90;99.90
11320;DHT22;5715;48.234;14.320;2023-12-04T14:16:28;-2.90;99.90
11320;DHT22;5715;48.234;14.320;2023-12-04T14:19:16;-3.00;99.90
11320;DHT22;5715;48.234;14.320;2023-12-04T14:22:05;-3.00;99.90
11320;DHT22;5715;48.234;14.320;2023-12-04T14:24:53;-3.10;99.90
11320;DHT22;5715;48.234;14.320;2023-12-04T14:27:40;-3.20;99.90
11320;DHT22;5715;48.234;14.320;2023-12-04T14:30:30;-3.20;99.90
11320;DHT22;5715;48.234;14.320;2023-12-04T14:33:18;-3.30;99.90
11320;DHT22;5715;48.234;14.320;2023-12-04T14:36:06;-3.50;99.90
11320;DHT22;5715;48.234;14.320;2023-12-04T14:38:54;-3.60;99.90
11320;DHT22;5715;48.234;14.320;2023-12-04T14:41:44;-3.80;99.90
11320;DHT22;5715;48.234;14.320;2023-12-04T14:44:32;-3.90;99.90
11320;DHT22;5715;48.234;14.320;2023-12-04T14:47:20;-4.00;99.90
11320;DHT22;5715;48.234;14.320;2023-12-04T14:50:09;-4.00;99.90
11320;DHT22;5715;48.234;14.320;2023-12-04T14:52:57;-4.00;99.90
11320;DHT22;5715;48.234;14.320;2023-12-04T14:55:55;-4.10;99.90
11320;DHT22;5715;48.234;14.320;2023-12-04T14:58:45;-4.10;99.90
11320;DHT22;5715;48.234;14.320;2023-12-04T15:01:52;-4.10;99.90
11320;DHT22;5715;48.234;14.320;2023-12-04T15:04:40;-4.10;99.90
11320;DHT22;5715;48.234;14.320;2023-12-04T15:07:47;-4.20;99.90
11320;DHT22;5715;48.234;14.320;2023-12-04T15:10:55;-4.20;99.90
11320;DHT22;5715;48.234;14.320;2023-12-04T15:14:05;-4.30;99.90
11320;DHT22;5715;48.234;14.320;2023-12-04T15:17:12;-4.40;99.90
11320;DHT22;5715;48.234;14.320;2023-12-04T15:20:20;-4.50;99.90
11320;DHT22;5715;48.234;14.320;2023-12-04T15:23:13;-4.60;99.90
11320;DHT22;5715;48.234;14.320;2023-12-04T15:26:01;-4.80;99.90
11320;DHT22;5715;48.234;14.320;2023-12-04T15:28:49;-4.90;99.90
11320;DHT22;5715;48.234;14.320;2023-12-04T15:31:37;-5.00;99.90
11320;DHT22;5715;48.234;14.320;2023-12-04T15:34:26;-5.10;99.90
11320;DHT22;5715;48.234;14.320;2023-12-04T15:37:15;-5.10;99.90
11320;DHT22;5715;48.234;14.320;2023-12-04T15:40:03;-5.20;99.90
11320;DHT22;5715;48.234;14.320;2023-12-04T15:42:51;-5.30;99.90
11320;DHT22;5715;48.234;14.320;2023-12-04T15:45:40;-5.40;99.90
11320;DHT22;5715;48.234;14.320;2023-12-04T15:48:27;-5.40;99.90
11320;DHT22;5715;48.234;14.320;2023-12-04T15:51:17;-5.40;99.90
11320;DHT22;5715;48.234;14.320;2023-12-04T15:54:05;-5.40;99.90
11320;DHT22;5715;48.234;14.320;2023-12-04T15:56:53;-5.50;99.90
11320;DHT22;5715;48.234;14.320;2023-12-04T15:59:40;-5.60;99.90
11320;DHT22;5715;48.234;14.320;2023-12-04T16:02:28;-5.60;99.90
11320;DHT22;5715;48.234;14.320;2023-12-04T16:05:16;-5.70;99.90
11320;DHT22;5715;48.234;14.320;2023-12-04T16:08:04;-5.80;99.90
11320;DHT22;5715;48.234;14.320;2023-12-04T16:10:52;-5.90;99.90
11320;DHT22;5715;48.234;14.320;2023-12-04T16:13:39;-6.00;99.90
11320;DHT22;5715;48.234;14.320;2023-12-04T16:16:27;-6.00;99.90
11320;DHT22;5715;48.234;14.320;2023-12-04T16:19:15;-6.10;99.90
11320;DHT22;5715;48.234;14.320;2023-12-04T16:22:03;-6.10;99.90
11320;DHT22;5715;48.234;14.320;2023-12-04T16:24:51;-6.20;99.90
11320;DHT22;5715;48.234;14.320;2023-12-04T16:27:38;-6.10;99.90
11320;DHT22;5715;48.234;14.320;2023-12-04T16:30:27;-6.10;99.90
11320;DHT22;5715;48.234;14.320;2023-12-04T16:33:14;-6.20;99.90
11320;DHT22;5715;48.234;14.320;2023-12-04T16:36:03;-6.30;99.90
11320;DHT22;5715;48.234;14.320;2023-12-04T16:38:51;-6.40;99.90
11320;DHT22;5715;48.234;14.320;2023-12-04T16:41:40;-6.50;99.90
11320;DHT22;5715;48.234;14.320;2023-12-04T16:44:27;-6.70;99.90
11320;DHT22;5715;48.234;14.320;2023-12-04T16:47:15;-6.80;99.90
11320;DHT22;5715;48.234;14.320;2023-12-04T16:50:03;-6.80;99.90
11320;DHT22;5715;48.234;14.320;2023-12-04T16:52:52;-6.90;99.90
11320;DHT22;5715;48.234;14.320;2023-12-04T16:55:39;-7.00;99.90
11320;DHT22;5715;48.234;14.320;2023-12-04T16:58:27;-7.10;99.90
11320;DHT22;5715;48.234;14.320;2023-12-04T17:01:15;-7.10;99.90
11320;DHT22;5715;48.234;14.320;2023-12-04T17:04:02;-7.30;99.90
11320;DHT22;5715;48.234;14.320;2023-12-04T17:06:51;-7.40;99.90
11320;DHT22;5715;48.234;14.320;2023-12-04T17:09:39;-7.40;99.90
11320;DHT22;5715;48.234;14.320;2023-12-04T17:12:26;-7.50;99.90
11320;DHT22;5715;48.234;14.320;2023-12-04T17:15:15;-7.50;99.90
11320;DHT22;5715;48.234;14.320;2023-12-04T17:18:02;-7.50;99.90
11320;DHT22;5715;48.234;14.320;2023-12-04T17:20:50;-7.50;99.90
11320;DHT22;5715;48.234;14.320;2023-12-04T17:23:38;-7.60;99.90
11320;DHT22;5715;48.234;14.320;2023-12-04T17:26:26;-7.70;99.90
11320;DHT22;5715;48.234;14.320;2023-12-04T17:29:14;-7.90;99.90
11320;DHT22;5715;48.234;14.320;2023-12-04T17:32:02;-7.90;99.90
11320;DHT22;5715;48.234;14.320;2023-12-04T17:34:49;-8.00;99.90
11320;DHT22;5715;48.234;14.320;2023-12-04T17:37:37;-8.00;99.90
11320;DHT22;5715;48.234;14.320;2023-12-04T17:40:25;-8.00;99.90
11320;DHT22;5715;48.234;14.320;2023-12-04T17:43:13;-8.00;99.90